sensor_id;sensor_type;location;lat;lon;timestamp;P1;durP1;ratioP1;P2;durP2;ratioP2
77026;SDS011;65956;52.986;17.490;2024-03-07T00:00:45;42.00;;;19.40;;
77026;SDS011;65956;52.986;17.490;2024-03-07T00:03:30;43.60;;;18.40;;
77026;SDS011;65956;52.986;17.490;2024-03-07T00:05:56;49.60;;;18.40;;
77026;SDS011;65956;52.986;17.490;2024-03-07T00:08:22;38.10;;;16.50;;
77026;SDS011;65956;52.986;17.490;2024-03-07T00:10:48;35.70;;;15.70;;
77026;SDS011;65956;52.986;17.490;2024-03-07T00:13:15;44.10;;;18.80;;
77026;SDS011;65956;52.986;17.490;2024-03-07T00:15:41;36.80;;;15.50;;
77026;SDS011;65956;52.986;17.490;2024-03-07T00:18:07;38.50;;;16.10;;
77026;SDS011;65956;52.986;17.490;2024-03-07T00:20:33;34.20;;;15.60;;
77026;SDS011;65956;52.986;17.490;2024-03-07T00:22:59;35.30;;;16.10;;
77026;SDS011;65956;52.986;17.490;2024-03-07T00:25:25;30.30;;;13.60;;
77026;SDS011;65956;52.986;17.490;2024-03-07T00:27:51;28.30;;;13.10;;
77026;SDS011;65956;52.986;17.490;2024-03-07T00:30:19;28.90;;;13.80;;
77026;SDS011;65956;52.986;17.490;2024-03-07T00:32:48;31.40;;;14.50;;
77026;SDS011;65956;52.986;17.490;2024-03-07T00:35:15;28.40;;;13.80;;
77026;SDS011;65956;52.986;17.490;2024-03-07T00:37:41;19.50;;;9.70;;
77026;SDS011;65956;52.986;17.490;2024-03-07T00:40:07;36.30;;;15.70;;
77026;SDS011;65956;52.986;17.490;2024-03-07T00:42:34;19.90;;;9.40;;
77026;SDS011;65956;52.986;17.490;2024-03-07T00:45:00;27.30;;;13.20;;
77026;SDS011;65956;52.986;17.490;2024-03-07T00:47:27;30.40;;;13.80;;
77026;SDS011;65956;52.986;17.490;2024-03-07T00:49:53;32.80;;;14.00;;
77026;SDS011;65956;52.986;17.490;2024-03-07T00:52:19;38.90;;;18.50;;
77026;SDS011;65956;52.986;17.490;2024-03-07T00:54:45;53.90;;;24.90;;
77026;SDS011;65956;52.986;17.490;2024-03-07T00:57:11;61.90;;;32.90;;
77026;SDS011;65956;52.986;17.490;2024-03-07T00:59:37;96.50;;;33.30;;
77026;SDS011;65956;52.986;17.490;2024-03-07T01:02:04;70.30;;;22.20;;
77026;SDS011;65956;52.986;17.490;2024-03-07T01:04:30;110.20;;;37.20;;
77026;SDS011;65956;52.986;17.490;2024-03-07T01:06:59;116.00;;;40.20;;
77026;SDS011;65956;52.986;17.490;2024-03-07T01:09:26;192.40;;;46.90;;
77026;SDS011;65956;52.986;17.490;2024-03-07T01:11:54;116.30;;;29.50;;
77026;SDS011;65956;52.986;17.490;2024-03-07T01:14:21;57.60;;;20.90;;
77026;SDS011;65956;52.986;17.490;2024-03-07T01:16:48;36.60;;;14.10;;
77026;SDS011;65956;52.986;17.490;2024-03-07T01:19:14;40.30;;;15.90;;
77026;SDS011;65956;52.986;17.490;2024-03-07T01:21:40;67.50;;;24.40;;
77026;SDS011;65956;52.986;17.490;2024-03-07T01:24:06;60.40;;;28.00;;
77026;SDS011;65956;52.986;17.490;2024-03-07T01:26:32;99.50;;;39.90;;
77026;SDS011;65956;52.986;17.490;2024-03-07T01:29:01;95.60;;;25.60;;
77026;SDS011;65956;52.986;17.490;2024-03-07T01:31:28;67.90;;;22.60;;
77026;SDS011;65956;52.986;17.490;2024-03-07T01:33:54;93.20;;;29.40;;
77026;SDS011;65956;52.986;17.490;2024-03-07T01:36:20;54.30;;;18.00;;
77026;SDS011;65956;52.986;17.490;2024-03-07T01:38:47;51.20;;;18.80;;
77026;SDS011;65956;52.986;17.490;2024-03-07T01:41:13;58.70;;;20.00;;
77026;SDS011;65956;52.986;17.490;2024-03-07T01:43:40;45.70;;;18.30;;
77026;SDS011;65956;52.986;17.490;2024-03-07T01:46:07;48.80;;;21.40;;
77026;SDS011;65956;52.986;17.490;2024-03-07T01:48:35;66.20;;;31.60;;
77026;SDS011;65956;52.986;17.490;2024-03-07T01:51:03;69.30;;;26.10;;
77026;SDS011;65956;52.986;17.490;2024-03-07T01:53:30;104.30;;;30.10;;
77026;SDS011;65956;52.986;17.490;2024-03-07T01:55:58;64.40;;;19.70;;
77026;SDS011;65956;52.986;17.490;2024-03-07T01:58:25;45.80;;;18.20;;
77026;SDS011;65956;52.986;17.490;2024-03-07T02:00:51;56.80;;;21.20;;
77026;SDS011;65956;52.986;17.490;2024-03-07T02:03:17;49.00;;;18.20;;
77026;SDS011;65956;52.986;17.490;2024-03-07T02:05:43;48.20;;;17.00;;
77026;SDS011;65956;52.986;17.490;2024-03-07T02:08:11;51.70;;;18.80;;
77026;SDS011;65956;52.986;17.490;2024-03-07T02:10:37;47.30;;;25.40;;
77026;SDS011;65956;52.986;17.490;2024-03-07T02:13:04;55.80;;;33.30;;
77026;SDS011;65956;52.986;17.490;2024-03-07T02:15:30;62.30;;;21.50;;
77026;SDS011;65956;52.986;17.490;2024-03-07T02:17:56;67.80;;;24.50;;
77026;SDS011;65956;52.986;17.490;2024-03-07T02:20:23;52.30;;;18.30;;
77026;SDS011;65956;52.986;17.490;2024-03-07T02:22:49;44.90;;;17.50;;
77026;SDS011;65956;52.986;17.490;2024-03-07T02:25:16;54.50;;;20.10;;
77026;SDS011;65956;52.986;17.490;2024-03-07T02:27:42;59.50;;;20.50;;
77026;SDS011;65956;52.986;17.490;2024-03-07T02:30:11;45.50;;;16.50;;
77026;SDS011;65956;52.986;17.490;2024-03-07T02:32:38;35.00;;;16.60;;
77026;SDS011;65956;52.986;17.490;2024-03-07T02:35:04;34.10;;;18.00;;
77026;SDS011;65956;52.986;17.490;2024-03-07T02:37:31;35.60;;;18.40;;
77026;SDS011;65956;52.986;17.490;2024-03-07T02:39:57;39.70;;;17.20;;
77026;SDS011;65956;52.986;17.490;2024-03-07T02:42:24;67.80;;;24.10;;
77026;SDS011;65956;52.986;17.490;2024-03-07T02:44:50;46.10;;;17.10;;
77026;SDS011;65956;52.986;17.490;2024-03-07T02:47:18;44.70;;;17.00;;
77026;SDS011;65956;52.986;17.490;2024-03-07T02:49:44;49.80;;;20.70;;
77026;SDS011;65956;52.986;17.490;2024-03-07T02:52:10;41.00;;;17.40;;
77026;SDS011;65956;52.986;17.490;2024-03-07T02:54:37;38.50;;;17.50;;
77026;SDS011;65956;52.986;17.490;2024-03-07T02:57:03;35.50;;;16.10;;
77026;SDS011;65956;52.986;17.490;2024-03-07T02:59:29;38.70;;;20.70;;
77026;SDS011;65956;52.986;17.490;2024-03-07T03:01:55;32.10;;;15.80;;
77026;SDS011;65956;52.986;17.490;2024-03-07T03:04:21;38.60;;;17.20;;
77026;SDS011;65956;52.986;17.490;2024-03-07T03:06:48;35.60;;;15.90;;
77026;SDS011;65956;52.986;17.490;2024-03-07T03:09:14;41.20;;;17.80;;
77026;SDS011;65956;52.986;17.490;2024-03-07T03:11:43;36.10;;;15.70;;
77026;SDS011;65956;52.986;17.490;2024-03-07T03:14:11;38.00;;;16.40;;
77026;SDS011;65956;52.986;17.490;2024-03-07T03:16:42;42.40;;;18.70;;
77026;SDS011;65956;52.986;17.490;2024-03-07T03:19:12;33.60;;;15.50;;
77026;SDS011;65956;52.986;17.490;2024-03-07T03:21:38;31.00;;;14.90;;
77026;SDS011;65956;52.986;17.490;2024-03-07T03:24:04;28.20;;;14.10;;
77026;SDS011;65956;52.986;17.490;2024-03-07T03:26:30;28.80;;;14.90;;
77026;SDS011;65956;52.986;17.490;2024-03-07T03:28:59;29.20;;;15.40;;
77026;SDS011;65956;52.986;17.490;2024-03-07T03:31:25;36.10;;;15.60;;
77026;SDS011;65956;52.986;17.490;2024-03-07T03:33:51;31.20;;;14.80;;
77026;SDS011;65956;52.986;17.490;2024-03-07T03:36:17;36.40;;;17.00;;
77026;SDS011;65956;52.986;17.490;2024-03-07T03:38:44;44.20;;;18.00;;
77026;SDS011;65956;52.986;17.490;2024-03-07T03:41:17;33.30;;;14.80;;
77026;SDS011;65956;52.986;17.490;2024-03-07T03:43:44;34.50;;;15.80;;
77026;SDS011;65956;52.986;17.490;2024-03-07T03:46:10;33.70;;;16.90;;
77026;SDS011;65956;52.986;17.490;2024-03-07T03:48:40;31.50;;;14.80;;
77026;SDS011;65956;52.986;17.490;2024-03-07T03:51:09;27.70;;;13.20;;
77026;SDS011;65956;52.986;17.490;2024-03-07T03:53:38;71.30;;;28.90;;
77026;SDS011;65956;52.986;17.490;2024-03-07T03:56:05;68.60;;;28.60;;
77026;SDS011;65956;52.986;17.490;2024-03-07T03:58:31;50.00;;;23.70;;
77026;SDS011;65956;52.986;17.490;2024-03-07T04:00:57;40.90;;;18.60;;
77026;SDS011;65956;52.986;17.490;2024-03-07T04:03:26;42.10;;;19.20;;
77026;SDS011;65956;52.986;17.490;2024-03-07T04:05:53;39.80;;;16.60;;
77026;SDS011;65956;52.986;17.490;2024-03-07T04:08:20;39.30;;;18.30;;
77026;SDS011;65956;52.986;17.490;2024-03-07T04:10:46;41.30;;;18.10;;
77026;SDS011;65956;52.986;17.490;2024-03-07T04:13:12;37.50;;;20.40;;
77026;SDS011;65956;52.986;17.490;2024-03-07T04:15:39;34.90;;;16.20;;
77026;SDS011;65956;52.986;17.490;2024-03-07T04:18:05;38.40;;;17.60;;
77026;SDS011;65956;52.986;17.490;2024-03-07T04:20:31;44.40;;;18.80;;
77026;SDS011;65956;52.986;17.490;2024-03-07T04:22:57;40.90;;;17.90;;
77026;SDS011;65956;52.986;17.490;2024-03-07T04:25:23;28.40;;;14.40;;
77026;SDS011;65956;52.986;17.490;2024-03-07T04:27:51;33.20;;;16.20;;
77026;SDS011;65956;52.986;17.490;2024-03-07T04:30:17;25.80;;;13.20;;
77026;SDS011;65956;52.986;17.490;2024-03-07T04:32:43;29.10;;;14.80;;
77026;SDS011;65956;52.986;17.490;2024-03-07T04:35:09;27.90;;;14.10;;
77026;SDS011;65956;52.986;17.490;2024-03-07T04:37:39;29.80;;;14.80;;
77026;SDS011;65956;52.986;17.490;2024-03-07T04:40:07;38.00;;;18.90;;
77026;SDS011;65956;52.986;17.490;2024-03-07T04:42:52;34.00;;;15.00;;
77026;SDS011;65956;52.986;17.490;2024-03-07T04:45:18;33.60;;;16.90;;
77026;SDS011;65956;52.986;17.490;2024-03-07T04:47:45;25.50;;;11.20;;
77026;SDS011;65956;52.986;17.490;2024-03-07T04:50:15;26.90;;;12.80;;
77026;SDS011;65956;52.986;17.490;2024-03-07T04:52:43;29.60;;;13.60;;
77026;SDS011;65956;52.986;17.490;2024-03-07T04:55:09;22.20;;;11.60;;
77026;SDS011;65956;52.986;17.490;2024-03-07T04:57:36;35.00;;;17.30;;
77026;SDS011;65956;52.986;17.490;2024-03-07T05:00:09;25.70;;;12.80;;
77026;SDS011;65956;52.986;17.490;2024-03-07T05:02:40;34.40;;;15.70;;
77026;SDS011;65956;52.986;17.490;2024-03-07T05:05:07;21.90;;;9.30;;
77026;SDS011;65956;52.986;17.490;2024-03-07T05:07:33;22.70;;;10.60;;
77026;SDS011;65956;52.986;17.490;2024-03-07T05:10:04;23.50;;;11.00;;
77026;SDS011;65956;52.986;17.490;2024-03-07T05:12:33;22.00;;;9.20;;
77026;SDS011;65956;52.986;17.490;2024-03-07T05:15:03;32.50;;;16.60;;
77026;SDS011;65956;52.986;17.490;2024-03-07T05:17:31;29.80;;;14.90;;
77026;SDS011;65956;52.986;17.490;2024-03-07T05:22:29;33.40;;;15.60;;
77026;SDS011;65956;52.986;17.490;2024-03-07T05:24:56;50.60;;;22.60;;
77026;SDS011;65956;52.986;17.490;2024-03-07T05:27:24;58.40;;;27.70;;
77026;SDS011;65956;52.986;17.490;2024-03-07T05:29:50;55.90;;;25.80;;
77026;SDS011;65956;52.986;17.490;2024-03-07T05:34:49;62.30;;;32.30;;
77026;SDS011;65956;52.986;17.490;2024-03-07T05:37:16;88.30;;;49.90;;
77026;SDS011;65956;52.986;17.490;2024-03-07T05:39:42;102.30;;;54.10;;
77026;SDS011;65956;52.986;17.490;2024-03-07T05:42:08;78.40;;;40.30;;
77026;SDS011;65956;52.986;17.490;2024-03-07T05:44:36;55.30;;;27.50;;
77026;SDS011;65956;52.986;17.490;2024-03-07T05:47:02;36.90;;;17.70;;
77026;SDS011;65956;52.986;17.490;2024-03-07T05:49:30;68.90;;;30.20;;
77026;SDS011;65956;52.986;17.490;2024-03-07T05:51:57;50.00;;;21.60;;
77026;SDS011;65956;52.986;17.490;2024-03-07T05:54:23;60.10;;;26.00;;
77026;SDS011;65956;52.986;17.490;2024-03-07T05:56:50;51.10;;;22.40;;
77026;SDS011;65956;52.986;17.490;2024-03-07T05:59:16;60.70;;;26.20;;
77026;SDS011;65956;52.986;17.490;2024-03-07T06:01:42;66.70;;;29.20;;
77026;SDS011;65956;52.986;17.490;2024-03-07T06:04:09;60.20;;;26.10;;
77026;SDS011;65956;52.986;17.490;2024-03-07T06:06:36;47.90;;;19.20;;
77026;SDS011;65956;52.986;17.490;2024-03-07T06:09:03;59.40;;;24.70;;
77026;SDS011;65956;52.986;17.490;2024-03-07T06:11:36;52.70;;;24.20;;
77026;SDS011;65956;52.986;17.490;2024-03-07T06:14:03;75.60;;;28.80;;
77026;SDS011;65956;52.986;17.490;2024-03-07T06:16:37;66.20;;;28.30;;
77026;SDS011;65956;52.986;17.490;2024-03-07T06:19:04;50.00;;;20.70;;
77026;SDS011;65956;52.986;17.490;2024-03-07T06:21:35;55.10;;;21.40;;
77026;SDS011;65956;52.986;17.490;2024-03-07T06:24:02;53.90;;;21.90;;
77026;SDS011;65956;52.986;17.490;2024-03-07T06:26:29;51.80;;;21.30;;
77026;SDS011;65956;52.986;17.490;2024-03-07T06:29:25;38.60;;;15.40;;
77026;SDS011;65956;52.986;17.490;2024-03-07T06:31:54;39.10;;;19.00;;
77026;SDS011;65956;52.986;17.490;2024-03-07T06:34:21;38.70;;;19.20;;
77026;SDS011;65956;52.986;17.490;2024-03-07T06:36:47;36.80;;;18.60;;
77026;SDS011;65956;52.986;17.490;2024-03-07T06:39:13;42.20;;;18.20;;
77026;SDS011;65956;52.986;17.490;2024-03-07T06:41:40;44.60;;;17.60;;
77026;SDS011;65956;52.986;17.490;2024-03-07T06:44:06;33.30;;;16.30;;
77026;SDS011;65956;52.986;17.490;2024-03-07T06:46:33;30.20;;;14.20;;
77026;SDS011;65956;52.986;17.490;2024-03-07T06:49:00;33.40;;;15.50;;
77026;SDS011;65956;52.986;17.490;2024-03-07T06:51:26;25.80;;;12.80;;
77026;SDS011;65956;52.986;17.490;2024-03-07T06:53:53;27.00;;;13.10;;
77026;SDS011;65956;52.986;17.490;2024-03-07T06:56:19;26.00;;;13.60;;
77026;SDS011;65956;52.986;17.490;2024-03-07T06:58:48;25.20;;;13.20;;
77026;SDS011;65956;52.986;17.490;2024-03-07T07:01:14;26.50;;;13.80;;
77026;SDS011;65956;52.986;17.490;2024-03-07T07:03:45;23.00;;;13.50;;
77026;SDS011;65956;52.986;17.490;2024-03-07T07:06:13;27.30;;;13.60;;
77026;SDS011;65956;52.986;17.490;2024-03-07T07:08:39;32.20;;;16.00;;
77026;SDS011;65956;52.986;17.490;2024-03-07T07:11:05;35.60;;;15.10;;
77026;SDS011;65956;52.986;17.490;2024-03-07T07:13:32;28.90;;;13.50;;
77026;SDS011;65956;52.986;17.490;2024-03-07T07:15:58;31.30;;;14.80;;
77026;SDS011;65956;52.986;17.490;2024-03-07T07:18:24;38.70;;;16.60;;
77026;SDS011;65956;52.986;17.490;2024-03-07T07:20:51;24.50;;;12.90;;
77026;SDS011;65956;52.986;17.490;2024-03-07T07:23:20;27.50;;;13.90;;
77026;SDS011;65956;52.986;17.490;2024-03-07T07:25:46;31.50;;;14.30;;
77026;SDS011;65956;52.986;17.490;2024-03-07T07:28:12;30.90;;;14.50;;
77026;SDS011;65956;52.986;17.490;2024-03-07T07:30:39;51.90;;;24.60;;
77026;SDS011;65956;52.986;17.490;2024-03-07T07:33:05;41.10;;;19.10;;
77026;SDS011;65956;52.986;17.490;2024-03-07T07:35:31;31.20;;;15.90;;
77026;SDS011;65956;52.986;17.490;2024-03-07T07:38:00;24.40;;;13.50;;
77026;SDS011;65956;52.986;17.490;2024-03-07T07:40:26;32.50;;;15.50;;
77026;SDS011;65956;52.986;17.490;2024-03-07T07:42:54;27.90;;;13.50;;
77026;SDS011;65956;52.986;17.490;2024-03-07T07:45:21;27.40;;;13.20;;
77026;SDS011;65956;52.986;17.490;2024-03-07T07:47:49;35.30;;;15.90;;
77026;SDS011;65956;52.986;17.490;2024-03-07T07:50:20;30.90;;;16.60;;
77026;SDS011;65956;52.986;17.490;2024-03-07T07:55:17;33.40;;;16.10;;
77026;SDS011;65956;52.986;17.490;2024-03-07T07:57:44;30.50;;;14.30;;
77026;SDS011;65956;52.986;17.490;2024-03-07T08:00:14;25.80;;;13.80;;
77026;SDS011;65956;52.986;17.490;2024-03-07T08:05:18;22.50;;;12.70;;
77026;SDS011;65956;52.986;17.490;2024-03-07T08:07:47;30.70;;;14.70;;
77026;SDS011;65956;52.986;17.490;2024-03-07T08:10:14;32.70;;;15.40;;
77026;SDS011;65956;52.986;17.490;2024-03-07T08:12:41;32.40;;;15.40;;
77026;SDS011;65956;52.986;17.490;2024-03-07T08:15:13;25.50;;;14.30;;
77026;SDS011;65956;52.986;17.490;2024-03-07T08:17:40;26.50;;;13.30;;
77026;SDS011;65956;52.986;17.490;2024-03-07T08:20:18;33.90;;;15.40;;
77026;SDS011;65956;52.986;17.490;2024-03-07T08:22:51;33.40;;;15.30;;
77026;SDS011;65956;52.986;17.490;2024-03-07T08:25:22;34.10;;;15.00;;
77026;SDS011;65956;52.986;17.490;2024-03-07T08:27:51;29.20;;;15.20;;
77026;SDS011;65956;52.986;17.490;2024-03-07T08:30:19;30.30;;;15.20;;
77026;SDS011;65956;52.986;17.490;2024-03-07T08:32:48;25.80;;;13.50;;
77026;SDS011;65956;52.986;17.490;2024-03-07T08:37:44;34.40;;;15.40;;
77026;SDS011;65956;52.986;17.490;2024-03-07T08:40:11;29.00;;;14.80;;
77026;SDS011;65956;52.986;17.490;2024-03-07T08:42:45;24.30;;;14.10;;
77026;SDS011;65956;52.986;17.490;2024-03-07T08:45:13;25.40;;;12.70;;
77026;SDS011;65956;52.986;17.490;2024-03-07T08:47:43;32.20;;;16.20;;
77026;SDS011;65956;52.986;17.490;2024-03-07T08:50:09;27.20;;;14.30;;
77026;SDS011;65956;52.986;17.490;2024-03-07T08:52:35;37.20;;;20.70;;
77026;SDS011;65956;52.986;17.490;2024-03-07T08:55:02;26.20;;;16.30;;
77026;SDS011;65956;52.986;17.490;2024-03-07T08:57:29;47.20;;;29.50;;
77026;SDS011;65956;52.986;17.490;2024-03-07T08:59:56;24.90;;;15.50;;
77026;SDS011;65956;52.986;17.490;2024-03-07T09:02:23;23.10;;;14.60;;
77026;SDS011;65956;52.986;17.490;2024-03-07T09:04:49;20.00;;;12.20;;
77026;SDS011;65956;52.986;17.490;2024-03-07T09:07:15;25.00;;;13.90;;
77026;SDS011;65956;52.986;17.490;2024-03-07T09:09:42;24.40;;;14.90;;
77026;SDS011;65956;52.986;17.490;2024-03-07T09:12:11;22.70;;;12.50;;
77026;SDS011;65956;52.986;17.490;2024-03-07T09:14:38;26.70;;;16.30;;
77026;SDS011;65956;52.986;17.490;2024-03-07T09:17:04;42.80;;;22.00;;
77026;SDS011;65956;52.986;17.490;2024-03-07T09:19:30;21.30;;;12.60;;
77026;SDS011;65956;52.986;17.490;2024-03-07T09:21:57;20.90;;;13.60;;
77026;SDS011;65956;52.986;17.490;2024-03-07T09:24:23;27.60;;;15.70;;
77026;SDS011;65956;52.986;17.490;2024-03-07T09:26:49;22.90;;;12.60;;
77026;SDS011;65956;52.986;17.490;2024-03-07T09:29:16;25.20;;;13.80;;
77026;SDS011;65956;52.986;17.490;2024-03-07T09:31:44;23.60;;;14.40;;
77026;SDS011;65956;52.986;17.490;2024-03-07T09:34:11;26.70;;;15.50;;
77026;SDS011;65956;52.986;17.490;2024-03-07T09:36:38;21.10;;;12.20;;
77026;SDS011;65956;52.986;17.490;2024-03-07T09:39:06;18.80;;;11.20;;
77026;SDS011;65956;52.986;17.490;2024-03-07T09:41:38;23.40;;;13.20;;
77026;SDS011;65956;52.986;17.490;2024-03-07T09:44:25;21.90;;;12.60;;
77026;SDS011;65956;52.986;17.490;2024-03-07T09:46:56;24.20;;;12.90;;
77026;SDS011;65956;52.986;17.490;2024-03-07T09:51:51;26.50;;;14.80;;
77026;SDS011;65956;52.986;17.490;2024-03-07T09:54:20;24.60;;;14.60;;
77026;SDS011;65956;52.986;17.490;2024-03-07T09:56:53;21.90;;;11.90;;
77026;SDS011;65956;52.986;17.490;2024-03-07T09:59:24;18.10;;;11.10;;
77026;SDS011;65956;52.986;17.490;2024-03-07T10:01:54;24.70;;;14.20;;
77026;SDS011;65956;52.986;17.490;2024-03-07T10:07:09;36.30;;;22.10;;
77026;SDS011;65956;52.986;17.490;2024-03-07T10:09:39;22.00;;;13.50;;
77026;SDS011;65956;52.986;17.490;2024-03-07T10:12:08;17.10;;;9.20;;
77026;SDS011;65956;52.986;17.490;2024-03-07T10:14:38;18.10;;;10.10;;
77026;SDS011;65956;52.986;17.490;2024-03-07T10:17:05;17.40;;;10.50;;
77026;SDS011;65956;52.986;17.490;2024-03-07T10:19:31;17.30;;;9.80;;
77026;SDS011;65956;52.986;17.490;2024-03-07T10:21:57;18.00;;;10.40;;
77026;SDS011;65956;52.986;17.490;2024-03-07T10:24:27;17.00;;;9.50;;
77026;SDS011;65956;52.986;17.490;2024-03-07T10:26:53;30.70;;;15.60;;
77026;SDS011;65956;52.986;17.490;2024-03-07T10:29:23;22.10;;;11.80;;
77026;SDS011;65956;52.986;17.490;2024-03-07T10:31:49;22.40;;;15.00;;
77026;SDS011;65956;52.986;17.490;2024-03-07T10:34:15;22.30;;;14.10;;
77026;SDS011;65956;52.986;17.490;2024-03-07T10:36:42;14.80;;;8.80;;
77026;SDS011;65956;52.986;17.490;2024-03-07T10:39:09;27.00;;;16.50;;
77026;SDS011;65956;52.986;17.490;2024-03-07T10:41:46;20.50;;;13.70;;
77026;SDS011;65956;52.986;17.490;2024-03-07T10:44:20;15.70;;;9.10;;
77026;SDS011;65956;52.986;17.490;2024-03-07T10:46:51;13.80;;;8.20;;
77026;SDS011;65956;52.986;17.490;2024-03-07T10:49:20;18.80;;;11.00;;
77026;SDS011;65956;52.986;17.490;2024-03-07T10:57:41;14.70;;;9.20;;
77026;SDS011;65956;52.986;17.490;2024-03-07T11:00:10;16.80;;;10.40;;
77026;SDS011;65956;52.986;17.490;2024-03-07T11:02:57;15.90;;;9.10;;
77026;SDS011;65956;52.986;17.490;2024-03-07T11:05:26;19.50;;;10.10;;
77026;SDS011;65956;52.986;17.490;2024-03-07T11:08:01;19.80;;;10.30;;
77026;SDS011;65956;52.986;17.490;2024-03-07T11:10:32;20.00;;;10.30;;
77026;SDS011;65956;52.986;17.490;2024-03-07T11:13:01;17.60;;;9.80;;
77026;SDS011;65956;52.986;17.490;2024-03-07T11:15:28;15.30;;;8.50;;
77026;SDS011;65956;52.986;17.490;2024-03-07T11:17:55;24.30;;;13.50;;
77026;SDS011;65956;52.986;17.490;2024-03-07T11:22:52;24.70;;;16.00;;
77026;SDS011;65956;52.986;17.490;2024-03-07T11:25:22;15.80;;;9.10;;
77026;SDS011;65956;52.986;17.490;2024-03-07T11:27:55;47.10;;;21.20;;
77026;SDS011;65956;52.986;17.490;2024-03-07T11:30:23;18.50;;;9.80;;
77026;SDS011;65956;52.986;17.490;2024-03-07T11:32:50;17.60;;;9.20;;
77026;SDS011;65956;52.986;17.490;2024-03-07T11:35:21;17.80;;;10.80;;
77026;SDS011;65956;52.986;17.490;2024-03-07T11:37:58;15.80;;;9.20;;
77026;SDS011;65956;52.986;17.490;2024-03-07T11:42:52;17.40;;;10.60;;
77026;SDS011;65956;52.986;17.490;2024-03-07T11:45:20;13.80;;;8.10;;
77026;SDS011;65956;52.986;17.490;2024-03-07T11:47:55;19.10;;;10.80;;
77026;SDS011;65956;52.986;17.490;2024-03-07T11:50:26;15.80;;;8.70;;
77026;SDS011;65956;52.986;17.490;2024-03-07T11:52:54;18.90;;;10.60;;
77026;SDS011;65956;52.986;17.490;2024-03-07T11:55:22;17.30;;;9.50;;
77026;SDS011;65956;52.986;17.490;2024-03-07T11:57:49;19.00;;;9.50;;
77026;SDS011;65956;52.986;17.490;2024-03-07T12:00:20;18.50;;;10.80;;
77026;SDS011;65956;52.986;17.490;2024-03-07T12:02:53;18.20;;;10.80;;
77026;SDS011;65956;52.986;17.490;2024-03-07T12:05:20;16.60;;;9.80;;
77026;SDS011;65956;52.986;17.490;2024-03-07T12:07:46;14.20;;;9.00;;
77026;SDS011;65956;52.986;17.490;2024-03-07T12:10:13;18.40;;;10.20;;
77026;SDS011;65956;52.986;17.490;2024-03-07T12:12:39;16.40;;;9.90;;
77026;SDS011;65956;52.986;17.490;2024-03-07T12:15:08;14.50;;;9.00;;
77026;SDS011;65956;52.986;17.490;2024-03-07T12:17:45;19.60;;;11.60;;
77026;SDS011;65956;52.986;17.490;2024-03-07T12:20:15;25.30;;;14.70;;
77026;SDS011;65956;52.986;17.490;2024-03-07T12:23:00;47.50;;;29.00;;
77026;SDS011;65956;52.986;17.490;2024-03-07T12:27:59;19.30;;;11.30;;
77026;SDS011;65956;52.986;17.490;2024-03-07T12:33:12;19.40;;;10.80;;
77026;SDS011;65956;52.986;17.490;2024-03-07T12:35:48;20.00;;;12.70;;
77026;SDS011;65956;52.986;17.490;2024-03-07T12:38:20;38.80;;;24.80;;
77026;SDS011;65956;52.986;17.490;2024-03-07T12:41:01;22.60;;;15.10;;
77026;SDS011;65956;52.986;17.490;2024-03-07T12:43:33;21.70;;;15.20;;
77026;SDS011;65956;52.986;17.490;2024-03-07T12:46:00;19.20;;;15.00;;
77026;SDS011;65956;52.986;17.490;2024-03-07T12:48:26;15.50;;;10.00;;
77026;SDS011;65956;52.986;17.490;2024-03-07T12:50:53;24.70;;;19.10;;
77026;SDS011;65956;52.986;17.490;2024-03-07T12:53:23;24.50;;;20.50;;
77026;SDS011;65956;52.986;17.490;2024-03-07T12:55:51;17.90;;;15.10;;
77026;SDS011;65956;52.986;17.490;2024-03-07T12:58:20;23.60;;;15.10;;
77026;SDS011;65956;52.986;17.490;2024-03-07T13:00:54;27.60;;;16.40;;
77026;SDS011;65956;52.986;17.490;2024-03-07T13:03:24;23.10;;;15.70;;
77026;SDS011;65956;52.986;17.490;2024-03-07T13:05:57;19.00;;;17.00;;
77026;SDS011;65956;52.986;17.490;2024-03-07T13:08:30;23.70;;;15.60;;
77026;SDS011;65956;52.986;17.490;2024-03-07T13:10:56;30.20;;;17.70;;
77026;SDS011;65956;52.986;17.490;2024-03-07T13:13:24;17.50;;;13.30;;
77026;SDS011;65956;52.986;17.490;2024-03-07T13:15:50;21.30;;;14.90;;
77026;SDS011;65956;52.986;17.490;2024-03-07T13:18:20;16.50;;;14.10;;
77026;SDS011;65956;52.986;17.490;2024-03-07T13:20:46;22.00;;;18.40;;
77026;SDS011;65956;52.986;17.490;2024-03-07T13:23:13;24.10;;;15.40;;
77026;SDS011;65956;52.986;17.490;2024-03-07T13:25:40;15.50;;;12.30;;
77026;SDS011;65956;52.986;17.490;2024-03-07T13:28:13;14.30;;;12.00;;
77026;SDS011;65956;52.986;17.490;2024-03-07T13:33:14;19.60;;;17.60;;
77026;SDS011;65956;52.986;17.490;2024-03-07T13:35:41;14.50;;;12.70;;
77026;SDS011;65956;52.986;17.490;2024-03-07T13:38:07;21.30;;;14.20;;
77026;SDS011;65956;52.986;17.490;2024-03-07T13:40:34;20.60;;;16.30;;
77026;SDS011;65956;52.986;17.490;2024-03-07T13:46:03;22.30;;;19.00;;
77026;SDS011;65956;52.986;17.490;2024-03-07T13:48:29;19.50;;;16.20;;
77026;SDS011;65956;52.986;17.490;2024-03-07T13:50:58;16.50;;;12.50;;
77026;SDS011;65956;52.986;17.490;2024-03-07T13:53:33;16.40;;;13.60;;
77026;SDS011;65956;52.986;17.490;2024-03-07T18:31:02;47.70;;;21.90;;
77026;SDS011;65956;52.986;17.490;2024-03-07T18:33:43;44.10;;;21.40;;
77026;SDS011;65956;52.986;17.490;2024-03-07T18:36:11;44.70;;;22.90;;
77026;SDS011;65956;52.986;17.490;2024-03-07T18:38:40;39.80;;;23.80;;
77026;SDS011;65956;52.986;17.490;2024-03-07T18:41:06;65.00;;;33.90;;
77026;SDS011;65956;52.986;17.490;2024-03-07T18:43:32;79.80;;;34.10;;
77026;SDS011;65956;52.986;17.490;2024-03-07T18:45:59;86.30;;;31.70;;
77026;SDS011;65956;52.986;17.490;2024-03-07T18:48:25;70.80;;;26.30;;
77026;SDS011;65956;52.986;17.490;2024-03-07T18:50:51;63.10;;;25.70;;
77026;SDS011;65956;52.986;17.490;2024-03-07T18:53:18;53.90;;;21.80;;
77026;SDS011;65956;52.986;17.490;2024-03-07T18:55:44;42.90;;;17.90;;
77026;SDS011;65956;52.986;17.490;2024-03-07T18:58:12;45.00;;;18.80;;
77026;SDS011;65956;52.986;17.490;2024-03-07T19:00:39;35.60;;;15.90;;
77026;SDS011;65956;52.986;17.490;2024-03-07T19:03:06;49.20;;;22.00;;
77026;SDS011;65956;52.986;17.490;2024-03-07T19:05:38;51.10;;;22.10;;
77026;SDS011;65956;52.986;17.490;2024-03-07T19:08:10;44.30;;;19.50;;
77026;SDS011;65956;52.986;17.490;2024-03-07T19:10:42;42.20;;;19.30;;
77026;SDS011;65956;52.986;17.490;2024-03-07T19:13:10;46.10;;;21.00;;
77026;SDS011;65956;52.986;17.490;2024-03-07T19:15:37;64.70;;;28.00;;
77026;SDS011;65956;52.986;17.490;2024-03-07T19:18:03;85.50;;;29.60;;
77026;SDS011;65956;52.986;17.490;2024-03-07T19:20:35;67.10;;;24.50;;
77026;SDS011;65956;52.986;17.490;2024-03-07T19:23:03;60.60;;;22.30;;
77026;SDS011;65956;52.986;17.490;2024-03-07T19:25:31;43.10;;;19.30;;
77026;SDS011;65956;52.986;17.490;2024-03-07T19:27:59;44.60;;;18.70;;